createdAt,value
2023-03-11T00:02:03.390Z,43.25
2023-03-11T00:06:03.488Z,45.00
2023-03-11T00:10:03.588Z,43.42
2023-03-11T00:14:03.710Z,42.96
2023-03-11T00:18:03.836Z,41.95
2023-03-11T00:22:03.908Z,41.60
2023-03-11T00:26:04.070Z,41.18
2023-03-11T00:30:04.154Z,41.61
2023-03-11T00:34:04.273Z,40.67
2023-03-11T00:38:04.415Z,41.96
2023-03-11T00:42:04.598Z,43.20
2023-03-11T00:46:04.664Z,42.15
2023-03-11T00:50:04.774Z,44.17
2023-03-11T00:54:04.924Z,44.87
2023-03-11T00:58:05.037Z,43.64
2023-03-11T01:02:05.185Z,44.11
2023-03-11T01:06:05.288Z,45.12
2023-03-11T01:10:05.405Z,44.15
2023-03-11T01:14:05.567Z,44.63
2023-03-11T01:18:05.709Z,44.70
2023-03-11T01:22:05.868Z,44.87
2023-03-11T01:26:05.946Z,45.16
2023-03-11T01:30:06.078Z,45.33
2023-03-11T01:34:06.252Z,44.08
2023-03-11T01:38:06.279Z,45.70
2023-03-11T01:42:06.400Z,45.31
2023-03-11T01:46:06.543Z,44.38
2023-03-11T01:50:06.606Z,44.53
2023-03-11T01:54:06.710Z,43.51
2023-03-11T01:58:06.891Z,43.43
2023-03-11T02:02:07.137Z,43.83
2023-03-11T02:06:07.145Z,42.90
2023-03-11T02:10:07.340Z,42.95
2023-03-11T02:14:07.361Z,42.40
2023-03-11T02:18:07.492Z,41.68
2023-03-11T02:22:07.602Z,41.59
2023-03-11T02:26:07.746Z,40.84
2023-03-11T02:30:07.820Z,40.76
2023-03-11T02:34:07.946Z,40.09
2023-03-11T02:38:08.087Z,39.52
2023-03-11T02:42:08.154Z,39.81
2023-03-11T02:46:08.301Z,39.73
2023-03-11T02:50:08.388Z,38.85
2023-03-11T02:54:08.575Z,40.61
2023-03-11T02:58:08.658Z,42.53
2023-03-11T03:02:08.828Z,43.81
2023-03-11T03:06:08.896Z,45.07
2023-03-11T03:10:09.023Z,44.75
2023-03-11T03:14:09.197Z,46.17
2023-03-11T03:18:09.344Z,46.96
2023-03-11T03:22:09.462Z,47.98
2023-03-11T03:26:09.555Z,47.94
2023-03-11T03:30:09.711Z,47.47
2023-03-11T03:34:09.846Z,46.77
2023-03-11T03:38:09.940Z,47.11
2023-03-11T03:42:10.037Z,46.73
2023-03-11T03:46:10.251Z,46.26
2023-03-11T03:50:10.371Z,45.40
2023-03-11T03:54:10.547Z,44.84
2023-03-11T03:58:10.660Z,45.20
2023-03-11T04:02:10.814Z,45.35
2023-03-11T04:06:10.884Z,44.48
2023-03-11T04:10:11.035Z,44.26
2023-03-11T04:14:11.114Z,43.19
2023-03-11T04:18:11.208Z,43.29
2023-03-11T04:22:11.349Z,43.95
2023-03-11T04:26:11.479Z,44.16
2023-03-11T04:30:11.593Z,44.37
2023-03-11T04:34:11.782Z,43.71
2023-03-11T04:38:11.982Z,43.84
2023-03-11T04:42:12.071Z,45.23
2023-03-11T04:46:12.274Z,45.46
2023-03-11T04:50:12.348Z,45.38
2023-03-11T04:54:12.443Z,45.03
2023-03-11T04:58:12.605Z,43.57
2023-03-11T05:02:13.061Z,43.31
2023-03-11T05:06:12.985Z,42.81
2023-03-11T05:10:13.004Z,42.54
2023-03-11T05:14:13.112Z,42.58
2023-03-11T05:18:13.238Z,43.29
2023-03-11T05:22:13.330Z,44.34
2023-03-11T05:26:13.505Z,45.66
2023-03-11T05:30:13.589Z,46.68
2023-03-11T05:34:13.698Z,46.16
2023-03-11T05:38:13.799Z,45.71
2023-03-11T05:42:13.942Z,45.62
2023-03-11T05:46:14.157Z,44.39
2023-03-11T05:50:14.153Z,44.87
2023-03-11T05:54:14.280Z,45.33
2023-03-11T05:58:14.435Z,45.49
2023-03-11T06:02:14.512Z,44.69
2023-03-11T06:06:14.652Z,44.58
2023-03-11T06:10:14.770Z,44.25
2023-03-11T06:14:14.922Z,43.91
2023-03-11T06:18:15.002Z,44.39
2023-03-11T06:22:15.204Z,44.29
2023-03-11T06:26:15.344Z,43.86
2023-03-11T06:30:15.467Z,43.61
2023-03-11T06:34:15.581Z,42.91
2023-03-11T06:38:15.737Z,43.55
2023-03-11T06:42:15.841Z,44.20
2023-03-11T06:46:16.029Z,43.57
2023-03-11T06:50:16.089Z,43.66
2023-03-11T06:54:16.219Z,43.38
2023-03-11T06:58:16.330Z,43.00
2023-03-11T07:02:16.462Z,44.06
2023-03-11T07:06:16.580Z,44.49
2023-03-11T07:10:16.813Z,44.47
2023-03-11T07:14:16.806Z,44.69
2023-03-11T07:18:16.945Z,44.08
2023-03-11T07:22:17.060Z,43.84
2023-03-11T07:26:17.134Z,43.21
2023-03-11T07:30:17.217Z,43.14
2023-03-11T07:34:17.644Z,42.81
2023-03-11T07:38:17.997Z,43.09
2023-03-11T07:42:17.624Z,43.61
2023-03-11T07:46:17.805Z,44.02
2023-03-11T07:50:17.932Z,44.21
2023-03-11T07:54:18.017Z,44.06
2023-03-11T07:58:18.252Z,43.45
2023-03-11T08:02:18.342Z,43.08
2023-03-11T08:06:18.482Z,43.15
2023-03-11T08:10:18.584Z,44.29
2023-03-11T08:14:18.674Z,43.45
2023-03-11T08:18:18.790Z,43.01
2023-03-11T08:22:18.926Z,42.72
2023-03-11T08:26:18.985Z,42.41
2023-03-11T08:30:19.180Z,42.05
2023-03-11T08:34:19.248Z,41.86
2023-03-11T08:38:19.382Z,40.64
2023-03-11T08:42:19.528Z,39.57
2023-03-11T08:46:19.673Z,38.96
2023-03-11T08:50:19.791Z,39.51
2023-03-11T08:54:19.872Z,39.48
2023-03-11T08:58:20.015Z,40.01
2023-03-11T09:02:20.158Z,39.05
2023-03-11T09:06:20.249Z,38.55
2023-03-11T09:10:20.353Z,38.97
2023-03-11T09:14:20.461Z,39.13
2023-03-11T09:18:20.549Z,38.21
2023-03-11T09:22:20.694Z,38.15
2023-03-11T09:26:20.783Z,38.79
2023-03-11T09:30:20.868Z,38.33
2023-03-11T09:34:21.002Z,37.89
2023-03-11T09:38:21.162Z,37.54
2023-03-11T09:42:21.298Z,36.11
2023-03-11T09:46:21.454Z,35.69
2023-03-11T09:50:21.520Z,34.93
2023-03-11T09:54:21.560Z,34.57
2023-03-11T09:58:21.693Z,34.48
2023-03-11T10:02:21.941Z,34.52
2023-03-11T10:06:21.950Z,33.81
2023-03-11T10:10:22.067Z,33.02
2023-03-11T10:14:22.124Z,33.29
2023-03-11T10:18:22.219Z,32.06
2023-03-11T10:22:22.359Z,30.74
2023-03-11T10:26:22.443Z,29.68
2023-03-11T10:30:22.621Z,29.60
2023-03-11T10:34:22.748Z,28.46
2023-03-11T10:38:22.808Z,27.68
2023-03-11T10:42:22.976Z,28.17
2023-03-11T10:46:23.072Z,27.84
2023-03-11T10:50:23.161Z,27.58
2023-03-11T10:54:23.289Z,26.47
2023-03-11T10:58:23.447Z,26.48
2023-03-11T11:02:23.568Z,25.81
2023-03-11T11:06:23.854Z,25.82
2023-03-11T11:10:23.804Z,25.08
2023-03-11T11:14:23.912Z,26.20
2023-03-11T11:18:23.996Z,26.14
2023-03-11T11:22:24.151Z,25.37
2023-03-11T11:26:24.243Z,26.27
2023-03-11T11:30:24.356Z,25.67
2023-03-11T11:34:24.399Z,25.66
2023-03-11T11:38:24.517Z,25.62
2023-03-11T11:42:24.659Z,26.37
2023-03-11T11:46:24.862Z,26.56
2023-03-11T11:50:24.934Z,25.97
2023-03-11T11:54:25.027Z,25.50
2023-03-11T11:58:25.093Z,25.99
2023-03-11T12:02:25.181Z,25.67
2023-03-11T12:06:25.254Z,24.59
2023-03-11T12:10:25.353Z,24.72
2023-03-11T12:14:25.479Z,24.89
2023-03-11T12:18:25.642Z,24.38
2023-03-11T12:22:25.760Z,24.22
2023-03-11T12:26:25.848Z,24.55
2023-03-11T12:30:25.984Z,24.02
2023-03-11T12:34:26.060Z,23.31
2023-03-11T12:38:26.191Z,22.78
2023-03-11T12:42:26.338Z,23.39
2023-03-11T12:46:26.486Z,22.54
2023-03-11T12:50:26.552Z,22.86
2023-03-11T12:54:26.715Z,22.59
2023-03-11T12:58:26.885Z,22.29
2023-03-11T13:02:27.014Z,23.18
2023-03-11T13:06:27.101Z,23.27
2023-03-11T13:10:27.261Z,23.51
2023-03-11T13:14:27.428Z,23.02
2023-03-11T13:18:27.530Z,22.66
2023-03-11T13:22:27.719Z,22.76
2023-03-11T13:26:27.803Z,22.35
2023-03-11T13:30:28.006Z,21.88
2023-03-11T13:34:28.137Z,21.99
2023-03-11T13:38:28.187Z,23.87
2023-03-11T13:42:28.356Z,24.18
2023-03-11T13:46:28.408Z,25.08
2023-03-11T13:50:28.487Z,26.07
2023-03-11T13:54:28.597Z,25.86
2023-03-11T13:58:28.728Z,25.17
2023-03-11T14:02:28.826Z,24.56
2023-03-11T14:06:28.984Z,25.29
2023-03-11T14:10:29.066Z,26.65
2023-03-11T14:14:29.081Z,26.02
2023-03-11T14:18:29.230Z,25.36
2023-03-11T14:22:29.337Z,25.04
2023-03-11T14:26:29.458Z,25.36
2023-03-11T14:30:29.545Z,25.62
2023-03-11T14:34:29.685Z,25.76
2023-03-11T14:38:29.859Z,25.71
2023-03-11T14:42:29.941Z,25.95
2023-03-11T14:46:30.070Z,26.28
2023-03-11T14:50:30.193Z,26.05
2023-03-11T14:54:30.288Z,25.71
2023-03-11T14:58:30.435Z,25.22
2023-03-11T15:02:30.546Z,27.38
2023-03-11T15:06:30.670Z,28.20
2023-03-11T15:10:30.760Z,27.99
2023-03-11T15:14:30.852Z,28.58
2023-03-11T15:18:30.987Z,28.49
2023-03-11T15:22:31.124Z,28.42
2023-03-11T15:26:31.234Z,29.10
2023-03-11T15:30:31.452Z,30.15
2023-03-11T15:34:31.514Z,30.13
2023-03-11T15:38:31.598Z,30.90
2023-03-11T15:42:31.689Z,33.17
2023-03-11T15:46:31.925Z,32.82
2023-03-11T15:50:46.743Z,32.24
2023-03-11T15:54:32.950Z,33.45
2023-03-11T15:58:32.088Z,34.43
2023-03-11T16:02:31.881Z,34.33
2023-03-11T16:06:31.900Z,36.06
2023-03-11T16:10:32.046Z,36.30
2023-03-11T16:14:32.146Z,36.33
2023-03-11T16:18:32.268Z,37.40
2023-03-11T16:22:32.413Z,38.05
2023-03-11T16:26:32.712Z,39.18
2023-03-11T16:30:32.727Z,39.00
2023-03-11T16:34:32.754Z,39.81
2023-03-11T16:38:32.870Z,40.13
2023-03-11T16:42:33.045Z,40.23
2023-03-11T16:46:33.264Z,41.06
2023-03-11T16:50:34.246Z,41.41
2023-03-11T16:54:33.484Z,42.05
2023-03-11T16:58:33.584Z,42.33
2023-03-11T17:02:33.792Z,42.03
2023-03-11T17:06:33.901Z,41.20
2023-03-11T17:10:34.041Z,41.61
2023-03-11T17:14:34.199Z,41.34
2023-03-11T17:18:34.350Z,41.33
2023-03-11T17:22:34.480Z,40.69
2023-03-11T17:26:34.582Z,41.27
2023-03-11T17:30:38.845Z,41.67
2023-03-11T17:34:34.677Z,41.97
2023-03-11T17:38:34.643Z,41.67
2023-03-11T17:42:34.594Z,42.56
2023-03-11T17:46:34.571Z,42.86
2023-03-11T17:50:34.541Z,42.04
2023-03-11T17:54:34.507Z,42.22
2023-03-11T17:58:34.443Z,41.98
2023-03-11T18:02:34.449Z,42.16
2023-03-11T18:06:34.432Z,42.09
2023-03-11T18:10:37.230Z,40.85
2023-03-11T18:14:34.458Z,40.76
2023-03-11T18:18:34.444Z,40.62
2023-03-11T18:22:35.476Z,40.24
2023-03-11T18:26:34.347Z,40.72
2023-03-11T18:30:34.295Z,40.22
2023-03-11T18:34:34.287Z,40.55
2023-03-11T18:38:34.238Z,39.66
2023-03-11T18:42:34.244Z,39.41
2023-03-11T18:46:34.210Z,38.80
2023-03-11T18:50:34.196Z,38.57
2023-03-11T18:54:34.103Z,42.65
2023-03-11T18:58:34.164Z,48.94
2023-03-11T19:02:34.305Z,52.66
2023-03-11T19:06:34.440Z,54.60
2023-03-11T19:10:34.629Z,58.21
2023-03-11T19:14:34.719Z,59.55
2023-03-11T19:18:34.816Z,60.48
2023-03-11T19:22:35.005Z,61.69
2023-03-11T19:26:44.437Z,62.17
2023-03-11T19:30:36.198Z,64.19
2023-03-11T19:34:35.066Z,64.35
2023-03-11T19:38:35.035Z,64.44
2023-03-11T19:42:35.238Z,65.06
2023-03-11T19:46:35.417Z,64.04
2023-03-11T19:50:35.392Z,63.38
2023-03-11T19:54:35.491Z,63.51
2023-03-11T19:58:35.697Z,63.87
2023-03-11T20:02:35.857Z,63.31
2023-03-11T20:06:36.028Z,62.55
2023-03-11T20:10:36.120Z,61.62
2023-03-11T20:14:36.169Z,62.67
2023-03-11T20:18:36.257Z,63.13
2023-03-11T20:22:36.438Z,61.72
2023-03-11T20:26:36.413Z,61.61
2023-03-11T20:30:36.552Z,61.95
2023-03-11T20:34:36.751Z,59.61
2023-03-11T20:38:36.898Z,61.16
2023-03-11T20:42:36.926Z,59.97
2023-03-11T20:46:37.095Z,60.34
2023-03-11T20:50:37.177Z,61.02
2023-03-11T20:54:37.371Z,62.25
2023-03-11T20:58:37.373Z,61.25
2023-03-11T21:02:37.740Z,60.41
2023-03-11T21:06:37.683Z,60.16
2023-03-11T21:10:37.817Z,62.25
2023-03-11T21:14:38.080Z,59.68
2023-03-11T21:18:38.068Z,60.06
2023-03-11T21:22:38.151Z,60.81
2023-03-11T21:26:38.216Z,60.52
2023-03-11T21:30:38.238Z,59.83
2023-03-11T21:34:38.347Z,59.63
2023-03-11T21:38:38.586Z,60.29
2023-03-11T21:42:38.720Z,60.43
2023-03-11T21:46:38.879Z,59.95
2023-03-11T21:50:38.868Z,60.45
2023-03-11T21:54:38.952Z,62.05
2023-03-11T21:58:39.164Z,61.28
2023-03-11T22:02:39.245Z,60.03
2023-03-11T22:06:39.473Z,60.65
2023-03-11T22:10:39.455Z,60.34
2023-03-11T22:14:39.678Z,59.89
2023-03-11T22:18:39.878Z,59.82
2023-03-11T22:22:39.957Z,59.76
2023-03-11T22:26:39.961Z,60.17
2023-03-11T22:30:40.132Z,60.57
2023-03-11T22:34:40.207Z,61.40
2023-03-11T22:38:42.108Z,62.20
2023-03-11T22:42:40.527Z,61.23
2023-03-11T22:46:40.644Z,60.61
2023-03-11T22:50:40.756Z,61.31
2023-03-11T22:54:40.956Z,60.83
2023-03-11T22:58:40.967Z,61.12
2023-03-11T23:02:41.282Z,60.91
2023-03-11T23:06:41.384Z,60.59
2023-03-11T23:10:41.539Z,61.21
2023-03-11T23:14:45.275Z,60.86
2023-03-11T23:18:41.557Z,60.58
2023-03-11T23:22:41.529Z,60.64
2023-03-11T23:26:41.520Z,59.82
2023-03-11T23:30:41.559Z,59.44
2023-03-11T23:34:41.430Z,60.81
2023-03-11T23:38:41.411Z,60.08
2023-03-11T23:42:41.377Z,60.50
2023-03-11T23:46:41.318Z,59.37
2023-03-11T23:50:41.290Z,59.36
2023-03-11T23:54:41.278Z,59.26
2023-03-11T23:58:41.218Z,59.14
